Estación Meteorológica Peña el Pijo (Robertgarden) [ 05/21/19 17:10:17 CEST ]

Fecha Hora Presion(HPa) Temp (°C) Humedad % Rocio (°C) Viento ( m/s) Direccion Lluvia 1Hora(mm) Lluvia 24H(mm) LLuvia Total(mm)
2018-Dec-27 01:01:37 1016.000 0.6 76 -3.2         160.58
2018-Dec-27 02:04:13 1015.800 0.6 75 -3.4         160.58
2018-Dec-27 03:01:44 1015.700 0.1 75 -3.8         160.58
2018-Dec-27 04:01:48 1015.300 -0.1 75 -4.0         160.58
2018-Dec-27 05:01:42 1015.200 -0.8 76 -4.5         160.58
2018-Dec-27 06:01:45 1015.200 -1.4 76 -5.1         160.58
2018-Dec-27 07:01:44 1015.200 -1.5 75 -5.4         160.58
2018-Dec-27 08:01:48 1015.400 -1.6 74 -5.6         160.58
2018-Dec-27 09:01:42 1015.500 -1.4 75 -5.3         160.58
2018-Dec-27 10:01:49 1015.700 3.0 75 -1.0         160.58
2018-Dec-27 11:01:48 1015.600 11.5 54 2.5         160.58
2018-Dec-27 12:01:42 1014.800 14.9 36 -0.1         160.58
2018-Dec-27 13:01:45 1013.800 15.5 31 -1.6         160.58
2018-Dec-27 14:01:38 1013.400 17.4 31 0.1         160.58
2018-Dec-27 15:01:34 1013.200 18.6 27 -0.9         160.58
2018-Dec-27 16:01:51 1013.300 16.4 30 -1.2         160.58
2018-Dec-27 17:01:41 1013.700 13.1 36 -1.8         160.58
2018-Dec-27 18:01:27 1013.900 9.0 47 -2.1         160.58
2018-Dec-27 19:01:41 1014.400 4.9 55 -3.4         160.58
2018-Dec-27 20:01:26 1014.700 2.4 62 -4.3         160.58
2018-Dec-27 21:02:00 1014.800 1.1 66 -4.6         160.58
2018-Dec-27 22:02:07 1014.800 0.9 67 -4.6         160.58
2018-Dec-27 23:01:17 1014.800 0.9 67 -4.6         160.58

Temperatura Máxima:18°    Temperatura Mínima:-1°
Presión Máxima:1016.000 Hpa    Presión Mínima:1013.200 Hpa


Volver